Decoded Metar for KMKY ( in ) (IATA:) | Meteo·Mobile Aviation Weather
aviador You're here:

KMKY Decoded Metar

in
Report Time2018-11-19 01:56:00
UTC Time2018-11-19 02:55:14
Flight Rules vfr VFR
Wind020° at 05 kt
W.Decomp.*RWY 35: 4.3 kt HW 2.5 kt RCW
W.Rank020° ranks 9
Current wind is below 020° avg. (6.2)
Visibility9999 m
Phenomena:Light Rain
Clouds:Scattered 033 Hf
Overcast 044 Hf
Expected CloudBase > 400 ft AGL from Temp-Dew spread
Ceiling4,400 ft
Temp22°C
Dew Point21°C (94% RH)
QNH1019 hPa
Raw Report
METAR KMKY 190156Z AUTO 02005KT 8SM -RA SCT033 OVC044 22/21 A3010 RMK
AO2 SLP194 P0005 T02170211=

Extra information for KMKY:More info

Social comments